sensor_id;sensor_type;location;lat;lon;timestamp;temperature;humidity
506;DHT22;551;48.524;9.056;2022-10-23T00:01:31;11.40;1.00
506;DHT22;551;48.524;9.056;2022-10-23T00:04:00;11.40;1.00
506;DHT22;551;48.524;9.056;2022-10-23T00:06:27;11.40;1.00
506;DHT22;551;48.524;9.056;2022-10-23T00:08:53;11.30;1.00
506;DHT22;551;48.524;9.056;2022-10-23T00:11:23;11.30;1.00
506;DHT22;551;48.524;9.056;2022-10-23T00:13:50;11.30;1.00
506;DHT22;551;48.524;9.056;2022-10-23T00:16:15;11.30;1.00
506;DHT22;551;48.524;9.056;2022-10-23T00:18:41;11.30;1.00
506;DHT22;551;48.524;9.056;2022-10-23T00:21:12;11.30;1.00
506;DHT22;551;48.524;9.056;2022-10-23T00:23:38;11.40;1.00
506;DHT22;551;48.524;9.056;2022-10-23T00:26:05;11.30;1.00
506;DHT22;551;48.524;9.056;2022-10-23T00:28:32;11.30;1.00
506;DHT22;551;48.524;9.056;2022-10-23T00:31:01;11.40;1.00
506;DHT22;551;48.524;9.056;2022-10-23T00:33:27;11.30;1.00
506;DHT22;551;48.524;9.056;2022-10-23T00:35:53;11.30;1.00
506;DHT22;551;48.524;9.056;2022-10-23T00:38:18;11.20;1.00
506;DHT22;551;48.524;9.056;2022-10-23T00:40:44;11.20;1.00
506;DHT22;551;48.524;9.056;2022-10-23T00:43:20;11.20;1.00
506;DHT22;551;48.524;9.056;2022-10-23T00:45:45;11.00;1.00
506;DHT22;551;48.524;9.056;2022-10-23T00:48:11;11.10;1.00
506;DHT22;551;48.524;9.056;2022-10-23T00:50:37;11.00;1.00
506;DHT22;551;48.524;9.056;2022-10-23T00:53:04;11.00;1.00
506;DHT22;551;48.524;9.056;2022-10-23T00:55:31;11.00;1.00
506;DHT22;551;48.524;9.056;2022-10-23T00:57:57;11.00;1.00
506;DHT22;551;48.524;9.056;2022-10-23T01:00:29;11.00;1.00
506;DHT22;551;48.524;9.056;2022-10-23T01:02:56;10.90;1.00
506;DHT22;551;48.524;9.056;2022-10-23T01:05:29;11.00;1.00
506;DHT22;551;48.524;9.056;2022-10-23T01:08:11;11.00;1.00
506;DHT22;551;48.524;9.056;2022-10-23T01:10:44;11.00;1.00
506;DHT22;551;48.524;9.056;2022-10-23T01:13:16;10.90;1.00
506;DHT22;551;48.524;9.056;2022-10-23T01:16:16;11.00;1.00
506;DHT22;551;48.524;9.056;2022-10-23T01:18:46;11.00;1.00
506;DHT22;551;48.524;9.056;2022-10-23T01:24:05;10.70;1.00
506;DHT22;551;48.524;9.056;2022-10-23T01:26:44;10.90;1.00
506;DHT22;551;48.524;9.056;2022-10-23T01:29:28;11.00;1.00
506;DHT22;551;48.524;9.056;2022-10-23T01:32:05;11.00;1.00
506;DHT22;551;48.524;9.056;2022-10-23T01:34:38;10.90;1.00
506;DHT22;551;48.524;9.056;2022-10-23T01:37:11;10.90;1.00
506;DHT22;551;48.524;9.056;2022-10-23T01:39:43;10.90;1.00
506;DHT22;551;48.524;9.056;2022-10-23T01:42:31;10.80;1.00
506;DHT22;551;48.524;9.056;2022-10-23T01:45:04;10.90;1.00
506;DHT22;551;48.524;9.056;2022-10-23T01:47:33;10.90;1.00
506;DHT22;551;48.524;9.056;2022-10-23T01:50:01;10.80;1.00
506;DHT22;551;48.524;9.056;2022-10-23T01:52:27;10.70;1.00
506;DHT22;551;48.524;9.056;2022-10-23T01:54:55;10.80;1.00
506;DHT22;551;48.524;9.056;2022-10-23T01:57:24;10.80;1.00
506;DHT22;551;48.524;9.056;2022-10-23T01:59:59;10.90;1.00
506;DHT22;551;48.524;9.056;2022-10-23T02:02:26;10.90;1.00
506;DHT22;551;48.524;9.056;2022-10-23T02:07:48;11.00;1.00
506;DHT22;551;48.524;9.056;2022-10-23T02:10:14;10.80;1.00
506;DHT22;551;48.524;9.056;2022-10-23T02:12:49;10.80;1.00
506;DHT22;551;48.524;9.056;2022-10-23T02:15:33;10.80;1.00
506;DHT22;551;48.524;9.056;2022-10-23T02:18:32;11.00;1.00
506;DHT22;551;48.524;9.056;2022-10-23T02:21:09;10.80;1.00
506;DHT22;551;48.524;9.056;2022-10-23T02:26:29;10.90;1.00
506;DHT22;551;48.524;9.056;2022-10-23T02:29:08;10.80;1.00
506;DHT22;551;48.524;9.056;2022-10-23T02:31:35;10.80;1.00
506;DHT22;551;48.524;9.056;2022-10-23T02:34:01;10.70;1.00
506;DHT22;551;48.524;9.056;2022-10-23T02:36:26;10.70;1.00
506;DHT22;551;48.524;9.056;2022-10-23T02:38:52;10.70;1.00
506;DHT22;551;48.524;9.056;2022-10-23T02:41:38;10.70;1.00
506;DHT22;551;48.524;9.056;2022-10-23T02:44:20;10.70;1.00
506;DHT22;551;48.524;9.056;2022-10-23T02:47:09;10.60;1.00
506;DHT22;551;48.524;9.056;2022-10-23T02:49:53;10.90;1.00
506;DHT22;551;48.524;9.056;2022-10-23T02:55:24;11.00;1.00
506;DHT22;551;48.524;9.056;2022-10-23T03:00:47;11.00;1.00
506;DHT22;551;48.524;9.056;2022-10-23T03:03:18;10.90;1.00
506;DHT22;551;48.524;9.056;2022-10-23T03:05:45;11.00;1.00
506;DHT22;551;48.524;9.056;2022-10-23T03:08:13;10.90;1.00
506;DHT22;551;48.524;9.056;2022-10-23T03:10:40;11.00;1.00
506;DHT22;551;48.524;9.056;2022-10-23T03:13:06;10.90;1.00
506;DHT22;551;48.524;9.056;2022-10-23T03:15:32;11.00;1.00
506;DHT22;551;48.524;9.056;2022-10-23T03:17:57;11.10;1.00
506;DHT22;551;48.524;9.056;2022-10-23T03:20:23;11.20;1.00
506;DHT22;551;48.524;9.056;2022-10-23T03:22:49;11.10;1.00
506;DHT22;551;48.524;9.056;2022-10-23T03:25:14;11.10;1.00
506;DHT22;551;48.524;9.056;2022-10-23T03:27:40;11.10;1.00
506;DHT22;551;48.524;9.056;2022-10-23T03:30:06;11.20;1.00
506;DHT22;551;48.524;9.056;2022-10-23T03:32:32;11.10;1.00
506;DHT22;551;48.524;9.056;2022-10-23T03:34:58;10.90;1.00
506;DHT22;551;48.524;9.056;2022-10-23T03:37:23;10.90;1.00
506;DHT22;551;48.524;9.056;2022-10-23T03:39:49;10.90;1.00
506;DHT22;551;48.524;9.056;2022-10-23T03:42:15;10.80;1.00
506;DHT22;551;48.524;9.056;2022-10-23T03:44:40;10.80;1.00
506;DHT22;551;48.524;9.056;2022-10-23T03:47:06;10.60;1.00
506;DHT22;551;48.524;9.056;2022-10-23T03:49:34;10.70;1.00
506;DHT22;551;48.524;9.056;2022-10-23T03:51:59;10.40;1.00
506;DHT22;551;48.524;9.056;2022-10-23T03:54:26;10.40;1.00
506;DHT22;551;48.524;9.056;2022-10-23T03:56:53;10.40;1.00
506;DHT22;551;48.524;9.056;2022-10-23T03:59:19;10.30;1.00
506;DHT22;551;48.524;9.056;2022-10-23T04:01:44;10.30;1.00
506;DHT22;551;48.524;9.056;2022-10-23T04:04:11;10.30;1.00
506;DHT22;551;48.524;9.056;2022-10-23T04:06:36;10.30;1.00
506;DHT22;551;48.524;9.056;2022-10-23T04:09:03;10.10;1.00
506;DHT22;551;48.524;9.056;2022-10-23T04:11:29;10.20;1.00
506;DHT22;551;48.524;9.056;2022-10-23T04:13:54;10.30;1.00
506;DHT22;551;48.524;9.056;2022-10-23T04:16:20;10.20;1.00
506;DHT22;551;48.524;9.056;2022-10-23T04:18:45;10.30;1.00
506;DHT22;551;48.524;9.056;2022-10-23T04:21:11;10.30;1.00
506;DHT22;551;48.524;9.056;2022-10-23T04:23:37;10.30;1.00
506;DHT22;551;48.524;9.056;2022-10-23T04:26:02;10.30;1.00
506;DHT22;551;48.524;9.056;2022-10-23T04:28:28;11.00;1.00
506;DHT22;551;48.524;9.056;2022-10-23T04:30:53;10.40;1.00
506;DHT22;551;48.524;9.056;2022-10-23T04:33:20;10.50;1.00
506;DHT22;551;48.524;9.056;2022-10-23T04:35:45;10.50;1.00
506;DHT22;551;48.524;9.056;2022-10-23T04:38:11;10.40;1.00
506;DHT22;551;48.524;9.056;2022-10-23T04:40:36;10.30;1.00
506;DHT22;551;48.524;9.056;2022-10-23T04:43:03;10.20;1.00
506;DHT22;551;48.524;9.056;2022-10-23T04:45:29;10.30;1.00
506;DHT22;551;48.524;9.056;2022-10-23T04:47:54;10.20;1.00
506;DHT22;551;48.524;9.056;2022-10-23T04:50:21;10.10;1.00
506;DHT22;551;48.524;9.056;2022-10-23T04:52:47;10.20;1.00
506;DHT22;551;48.524;9.056;2022-10-23T04:55:13;10.20;1.00
506;DHT22;551;48.524;9.056;2022-10-23T04:57:38;10.20;1.00
506;DHT22;551;48.524;9.056;2022-10-23T05:00:06;10.20;1.00
506;DHT22;551;48.524;9.056;2022-10-23T05:02:32;10.30;1.00
506;DHT22;551;48.524;9.056;2022-10-23T05:04:58;10.20;1.00
506;DHT22;551;48.524;9.056;2022-10-23T05:07:23;10.20;1.00
506;DHT22;551;48.524;9.056;2022-10-23T05:09:49;10.20;1.00
506;DHT22;551;48.524;9.056;2022-10-23T05:12:14;10.30;1.00
506;DHT22;551;48.524;9.056;2022-10-23T05:14:40;10.20;1.00
506;DHT22;551;48.524;9.056;2022-10-23T05:17:13;10.20;1.00
506;DHT22;551;48.524;9.056;2022-10-23T05:19:43;10.30;1.00
506;DHT22;551;48.524;9.056;2022-10-23T05:22:11;10.10;1.00
506;DHT22;551;48.524;9.056;2022-10-23T05:24:37;10.10;1.00
506;DHT22;551;48.524;9.056;2022-10-23T05:27:03;10.10;1.00
506;DHT22;551;48.524;9.056;2022-10-23T05:29:28;10.20;1.00
506;DHT22;551;48.524;9.056;2022-10-23T05:31:58;10.00;1.00
506;DHT22;551;48.524;9.056;2022-10-23T05:34:26;10.10;1.00
506;DHT22;551;48.524;9.056;2022-10-23T05:36:55;10.10;1.00
506;DHT22;551;48.524;9.056;2022-10-23T05:39:21;10.20;1.00
506;DHT22;551;48.524;9.056;2022-10-23T05:41:47;10.00;1.00
506;DHT22;551;48.524;9.056;2022-10-23T05:44:13;10.10;1.00
506;DHT22;551;48.524;9.056;2022-10-23T05:46:41;9.90;1.00
506;DHT22;551;48.524;9.056;2022-10-23T05:49:07;10.00;1.00
506;DHT22;551;48.524;9.056;2022-10-23T05:51:36;10.10;1.00
506;DHT22;551;48.524;9.056;2022-10-23T05:54:02;10.10;1.00
506;DHT22;551;48.524;9.056;2022-10-23T05:56:27;10.30;1.00
506;DHT22;551;48.524;9.056;2022-10-23T05:58:53;10.20;1.00
506;DHT22;551;48.524;9.056;2022-10-23T06:01:19;10.30;1.00
506;DHT22;551;48.524;9.056;2022-10-23T06:03:44;10.10;1.00
506;DHT22;551;48.524;9.056;2022-10-23T06:06:10;10.20;1.00
506;DHT22;551;48.524;9.056;2022-10-23T06:08:35;10.20;1.00
506;DHT22;551;48.524;9.056;2022-10-23T06:11:08;10.20;1.00
506;DHT22;551;48.524;9.056;2022-10-23T06:13:35;10.30;1.00
506;DHT22;551;48.524;9.056;2022-10-23T06:16:17;10.30;1.00
506;DHT22;551;48.524;9.056;2022-10-23T06:18:44;10.30;1.00
506;DHT22;551;48.524;9.056;2022-10-23T06:21:10;10.30;1.00
506;DHT22;551;48.524;9.056;2022-10-23T06:23:38;10.30;1.00
506;DHT22;551;48.524;9.056;2022-10-23T06:26:04;10.30;1.00
506;DHT22;551;48.524;9.056;2022-10-23T06:28:30;10.40;1.00
506;DHT22;551;48.524;9.056;2022-10-23T06:30:56;10.60;1.00
506;DHT22;551;48.524;9.056;2022-10-23T06:33:21;10.60;1.00
506;DHT22;551;48.524;9.056;2022-10-23T06:35:47;10.70;1.00
506;DHT22;551;48.524;9.056;2022-10-23T06:38:12;10.80;1.00
506;DHT22;551;48.524;9.056;2022-10-23T06:40:38;10.90;1.00
506;DHT22;551;48.524;9.056;2022-10-23T06:43:04;11.00;1.00
506;DHT22;551;48.524;9.056;2022-10-23T06:45:32;11.20;1.00
506;DHT22;551;48.524;9.056;2022-10-23T06:47:58;11.30;1.00
506;DHT22;551;48.524;9.056;2022-10-23T06:50:24;11.40;1.00
506;DHT22;551;48.524;9.056;2022-10-23T06:52:50;11.60;1.00
506;DHT22;551;48.524;9.056;2022-10-23T06:55:16;11.60;1.00
506;DHT22;551;48.524;9.056;2022-10-23T06:57:42;11.90;1.00
506;DHT22;551;48.524;9.056;2022-10-23T07:00:08;12.10;1.00
506;DHT22;551;48.524;9.056;2022-10-23T07:02:33;12.40;1.00
506;DHT22;551;48.524;9.056;2022-10-23T07:04:59;12.40;1.00
506;DHT22;551;48.524;9.056;2022-10-23T07:07:25;12.60;1.00
506;DHT22;551;48.524;9.056;2022-10-23T07:09:50;12.80;1.00
506;DHT22;551;48.524;9.056;2022-10-23T07:12:16;13.00;1.00
506;DHT22;551;48.524;9.056;2022-10-23T07:14:41;13.40;1.00
506;DHT22;551;48.524;9.056;2022-10-23T07:17:07;13.50;1.00
506;DHT22;551;48.524;9.056;2022-10-23T07:19:32;13.80;1.00
506;DHT22;551;48.524;9.056;2022-10-23T07:21:58;13.90;1.00
506;DHT22;551;48.524;9.056;2022-10-23T07:24:23;14.00;1.00
506;DHT22;551;48.524;9.056;2022-10-23T07:26:49;14.00;1.00
506;DHT22;551;48.524;9.056;2022-10-23T07:29:14;13.80;1.00
506;DHT22;551;48.524;9.056;2022-10-23T07:31:40;13.90;1.00
506;DHT22;551;48.524;9.056;2022-10-23T07:34:05;14.20;1.00
506;DHT22;551;48.524;9.056;2022-10-23T07:36:31;14.90;1.00
506;DHT22;551;48.524;9.056;2022-10-23T07:38:57;14.90;1.00
506;DHT22;551;48.524;9.056;2022-10-23T07:41:22;15.30;1.00
506;DHT22;551;48.524;9.056;2022-10-23T07:43:48;15.40;1.00
506;DHT22;551;48.524;9.056;2022-10-23T07:46:13;15.60;1.00
506;DHT22;551;48.524;9.056;2022-10-23T07:48:39;16.00;1.00
506;DHT22;551;48.524;9.056;2022-10-23T07:51:11;17.20;1.00
506;DHT22;551;48.524;9.056;2022-10-23T07:53:37;17.10;1.00
506;DHT22;551;48.524;9.056;2022-10-23T07:56:22;17.50;1.00
506;DHT22;551;48.524;9.056;2022-10-23T07:58:49;17.90;1.00
506;DHT22;551;48.524;9.056;2022-10-23T08:01:32;18.80;1.00
506;DHT22;551;48.524;9.056;2022-10-23T08:03:59;19.30;1.00
506;DHT22;551;48.524;9.056;2022-10-23T08:06:25;20.10;1.00
506;DHT22;551;48.524;9.056;2022-10-23T08:08:50;21.20;1.00
506;DHT22;551;48.524;9.056;2022-10-23T08:11:17;22.80;1.00
506;DHT22;551;48.524;9.056;2022-10-23T08:13:49;24.00;1.00
506;DHT22;551;48.524;9.056;2022-10-23T08:16:15;25.30;1.00
506;DHT22;551;48.524;9.056;2022-10-23T08:18:40;26.30;1.00
506;DHT22;551;48.524;9.056;2022-10-23T08:21:07;26.70;1.00
506;DHT22;551;48.524;9.056;2022-10-23T08:23:32;26.40;1.00
506;DHT22;551;48.524;9.056;2022-10-23T08:26:00;25.40;1.00
506;DHT22;551;48.524;9.056;2022-10-23T08:28:27;24.40;1.00
506;DHT22;551;48.524;9.056;2022-10-23T08:30:53;23.40;1.00
506;DHT22;551;48.524;9.056;2022-10-23T08:33:18;22.50;1.00
506;DHT22;551;48.524;9.056;2022-10-23T08:35:44;22.40;1.00
506;DHT22;551;48.524;9.056;2022-10-23T08:38:10;21.90;1.00
506;DHT22;551;48.524;9.056;2022-10-23T08:40:35;21.90;1.00
506;DHT22;551;48.524;9.056;2022-10-23T08:43:05;22.80;1.00
506;DHT22;551;48.524;9.056;2022-10-23T08:48:36;24.70;1.00
506;DHT22;551;48.524;9.056;2022-10-23T08:51:12;25.90;1.00
506;DHT22;551;48.524;9.056;2022-10-23T08:53:48;27.20;1.00
506;DHT22;551;48.524;9.056;2022-10-23T08:56:23;27.60;1.00
506;DHT22;551;48.524;9.056;2022-10-23T09:01:39;29.50;1.00
506;DHT22;551;48.524;9.056;2022-10-23T09:04:08;29.60;1.00
506;DHT22;551;48.524;9.056;2022-10-23T09:12:16;31.10;1.00
506;DHT22;551;48.524;9.056;2022-10-23T09:17:37;30.60;1.00
506;DHT22;551;48.524;9.056;2022-10-23T09:20:26;31.00;1.00
506;DHT22;551;48.524;9.056;2022-10-23T09:22:58;31.30;1.00
506;DHT22;551;48.524;9.056;2022-10-23T09:25:32;31.10;1.00
506;DHT22;551;48.524;9.056;2022-10-23T09:28:00;31.30;1.00
506;DHT22;551;48.524;9.056;2022-10-23T09:32:57;32.00;1.00
506;DHT22;551;48.524;9.056;2022-10-23T09:35:25;32.00;1.00
506;DHT22;551;48.524;9.056;2022-10-23T09:37:51;31.50;1.00
506;DHT22;551;48.524;9.056;2022-10-23T09:42:59;30.60;1.00
506;DHT22;551;48.524;9.056;2022-10-23T09:45:32;30.50;1.00
506;DHT22;551;48.524;9.056;2022-10-23T09:48:12;30.90;1.00
506;DHT22;551;48.524;9.056;2022-10-23T09:50:59;31.30;1.00
506;DHT22;551;48.524;9.056;2022-10-23T09:53:37;31.80;1.00
506;DHT22;551;48.524;9.056;2022-10-23T09:56:06;31.60;1.00
506;DHT22;551;48.524;9.056;2022-10-23T09:58:57;31.50;1.00
506;DHT22;551;48.524;9.056;2022-10-23T10:01:25;31.30;1.00
506;DHT22;551;48.524;9.056;2022-10-23T10:03:51;31.20;1.00
506;DHT22;551;48.524;9.056;2022-10-23T10:06:28;31.20;1.00
506;DHT22;551;48.524;9.056;2022-10-23T10:09:01;31.00;1.00
506;DHT22;551;48.524;9.056;2022-10-23T10:20:32;29.80;1.00
506;DHT22;551;48.524;9.056;2022-10-23T10:23:09;29.80;1.00
506;DHT22;551;48.524;9.056;2022-10-23T10:25:49;29.60;1.00
506;DHT22;551;48.524;9.056;2022-10-23T10:31:10;29.10;1.00
506;DHT22;551;48.524;9.056;2022-10-23T10:36:50;28.30;1.00
506;DHT22;551;48.524;9.056;2022-10-23T10:42:07;27.90;1.00
506;DHT22;551;48.524;9.056;2022-10-23T10:45:15;27.90;1.00
506;DHT22;551;48.524;9.056;2022-10-23T10:50:55;27.20;1.00
506;DHT22;551;48.524;9.056;2022-10-23T10:56:27;26.90;1.00
506;DHT22;551;48.524;9.056;2022-10-23T10:58:57;26.70;1.00
506;DHT22;551;48.524;9.056;2022-10-23T11:01:29;26.60;1.00
506;DHT22;551;48.524;9.056;2022-10-23T11:04:04;25.90;1.00
506;DHT22;551;48.524;9.056;2022-10-23T11:06:36;25.60;1.00
506;DHT22;551;48.524;9.056;2022-10-23T11:09:27;25.30;1.00
506;DHT22;551;48.524;9.056;2022-10-23T11:11:54;25.10;1.00
506;DHT22;551;48.524;9.056;2022-10-23T11:14:29;25.00;1.00
506;DHT22;551;48.524;9.056;2022-10-23T11:17:13;24.70;1.00
506;DHT22;551;48.524;9.056;2022-10-23T11:19:46;24.40;1.00
506;DHT22;551;48.524;9.056;2022-10-23T11:22:21;24.70;1.00
506;DHT22;551;48.524;9.056;2022-10-23T11:30:34;24.70;1.00
506;DHT22;551;48.524;9.056;2022-10-23T11:36:54;25.20;1.00
506;DHT22;551;48.524;9.056;2022-10-23T11:41:56;26.20;1.00
506;DHT22;551;48.524;9.056;2022-10-23T11:44:37;26.50;1.00
506;DHT22;551;48.524;9.056;2022-10-23T11:47:34;26.70;1.00
506;DHT22;551;48.524;9.056;2022-10-23T11:50:24;26.80;1.00
506;DHT22;551;48.524;9.056;2022-10-23T11:53:05;26.70;1.00
506;DHT22;551;48.524;9.056;2022-10-23T11:55:36;26.90;1.00
506;DHT22;551;48.524;9.056;2022-10-23T11:58:17;27.10;1.00
506;DHT22;551;48.524;9.056;2022-10-23T12:00:55;27.40;1.00
506;DHT22;551;48.524;9.056;2022-10-23T12:03:26;28.40;1.00
506;DHT22;551;48.524;9.056;2022-10-23T12:06:04;29.10;1.00
506;DHT22;551;48.524;9.056;2022-10-23T12:08:33;29.60;1.00
506;DHT22;551;48.524;9.056;2022-10-23T12:10:59;30.20;1.00
506;DHT22;551;48.524;9.056;2022-10-23T12:16:03;30.70;1.00
506;DHT22;551;48.524;9.056;2022-10-23T12:18:29;30.80;1.00
506;DHT22;551;48.524;9.056;2022-10-23T12:21:00;30.50;1.00
506;DHT22;551;48.524;9.056;2022-10-23T12:23:47;30.10;1.00
506;DHT22;551;48.524;9.056;2022-10-23T12:29:02;29.00;1.00
506;DHT22;551;48.524;9.056;2022-10-23T12:31:45;28.60;1.00
506;DHT22;551;48.524;9.056;2022-10-23T12:39:51;28.60;1.00
506;DHT22;551;48.524;9.056;2022-10-23T12:42:25;29.10;1.00
506;DHT22;551;48.524;9.056;2022-10-23T12:47:28;29.10;1.00
506;DHT22;551;48.524;9.056;2022-10-23T12:49:54;29.60;1.00
506;DHT22;551;48.524;9.056;2022-10-23T12:52:20;29.80;1.00
506;DHT22;551;48.524;9.056;2022-10-23T12:54:48;30.50;1.00
506;DHT22;551;48.524;9.056;2022-10-23T12:57:27;30.80;1.00
506;DHT22;551;48.524;9.056;2022-10-23T12:59:56;31.50;1.00
506;DHT22;551;48.524;9.056;2022-10-23T13:02:29;32.20;1.00
506;DHT22;551;48.524;9.056;2022-10-23T13:04:57;32.30;1.00
506;DHT22;551;48.524;9.056;2022-10-23T13:07:29;32.40;1.00
506;DHT22;551;48.524;9.056;2022-10-23T13:09:57;31.90;1.00
506;DHT22;551;48.524;9.056;2022-10-23T13:12:33;31.20;1.00
506;DHT22;551;48.524;9.056;2022-10-23T13:15:16;30.70;1.00
506;DHT22;551;48.524;9.056;2022-10-23T13:22:44;30.70;1.00
506;DHT22;551;48.524;9.056;2022-10-23T13:27:48;30.70;1.00
506;DHT22;551;48.524;9.056;2022-10-23T13:30:32;31.20;1.00
506;DHT22;551;48.524;9.056;2022-10-23T13:32:58;31.40;1.00
506;DHT22;551;48.524;9.056;2022-10-23T13:35:24;31.60;1.00
506;DHT22;551;48.524;9.056;2022-10-23T13:37:50;31.20;1.00
506;DHT22;551;48.524;9.056;2022-10-23T13:40:24;30.50;1.00
506;DHT22;551;48.524;9.056;2022-10-23T13:42:52;29.50;1.00
506;DHT22;551;48.524;9.056;2022-10-23T13:45:23;28.70;1.00
506;DHT22;551;48.524;9.056;2022-10-23T13:47:49;28.00;1.00
506;DHT22;551;48.524;9.056;2022-10-23T13:50:16;27.50;1.00
506;DHT22;551;48.524;9.056;2022-10-23T13:52:41;26.90;1.00
506;DHT22;551;48.524;9.056;2022-10-23T13:55:21;26.40;1.00
506;DHT22;551;48.524;9.056;2022-10-23T13:57:47;26.20;1.00
506;DHT22;551;48.524;9.056;2022-10-23T14:00:13;25.50;1.00
506;DHT22;551;48.524;9.056;2022-10-23T14:02:39;25.30;1.00
506;DHT22;551;48.524;9.056;2022-10-23T14:05:05;25.10;1.00
506;DHT22;551;48.524;9.056;2022-10-23T14:07:31;24.80;1.00
506;DHT22;551;48.524;9.056;2022-10-23T14:09:56;24.50;1.00
506;DHT22;551;48.524;9.056;2022-10-23T14:12:22;24.30;1.00
506;DHT22;551;48.524;9.056;2022-10-23T14:14:51;24.00;1.00
506;DHT22;551;48.524;9.056;2022-10-23T14:17:17;23.70;1.00
506;DHT22;551;48.524;9.056;2022-10-23T14:19:43;23.50;1.00
506;DHT22;551;48.524;9.056;2022-10-23T14:22:10;23.30;1.00
506;DHT22;551;48.524;9.056;2022-10-23T14:24:35;23.30;1.00
506;DHT22;551;48.524;9.056;2022-10-23T14:27:01;23.30;1.00
506;DHT22;551;48.524;9.056;2022-10-23T14:29:26;23.20;1.00
506;DHT22;551;48.524;9.056;2022-10-23T14:31:52;23.10;1.00
506;DHT22;551;48.524;9.056;2022-10-23T14:34:18;23.00;1.00
506;DHT22;551;48.524;9.056;2022-10-23T14:36:43;23.00;1.00
506;DHT22;551;48.524;9.056;2022-10-23T14:39:09;23.30;1.00
506;DHT22;551;48.524;9.056;2022-10-23T14:41:34;22.90;1.00
506;DHT22;551;48.524;9.056;2022-10-23T14:44:00;23.00;1.00
506;DHT22;551;48.524;9.056;2022-10-23T14:46:25;23.10;1.00
506;DHT22;551;48.524;9.056;2022-10-23T14:48:52;23.30;1.00
506;DHT22;551;48.524;9.056;2022-10-23T14:51:27;23.20;1.00
506;DHT22;551;48.524;9.056;2022-10-23T14:53:59;23.20;1.00
506;DHT22;551;48.524;9.056;2022-10-23T14:56:29;23.30;1.00
506;DHT22;551;48.524;9.056;2022-10-23T14:58:55;23.20;1.00
506;DHT22;551;48.524;9.056;2022-10-23T15:01:27;23.30;1.00
506;DHT22;551;48.524;9.056;2022-10-23T15:03:53;23.20;1.00
506;DHT22;551;48.524;9.056;2022-10-23T15:06:20;23.10;1.00
506;DHT22;551;48.524;9.056;2022-10-23T15:08:49;23.20;1.00
506;DHT22;551;48.524;9.056;2022-10-23T15:11:15;23.00;1.00
506;DHT22;551;48.524;9.056;2022-10-23T15:13:40;22.90;1.00
506;DHT22;551;48.524;9.056;2022-10-23T15:16:08;22.80;1.00
506;DHT22;551;48.524;9.056;2022-10-23T15:18:34;22.70;1.00
506;DHT22;551;48.524;9.056;2022-10-23T15:21:06;22.90;1.00
506;DHT22;551;48.524;9.056;2022-10-23T15:23:34;22.30;1.00
506;DHT22;551;48.524;9.056;2022-10-23T15:26:02;22.20;1.00
506;DHT22;551;48.524;9.056;2022-10-23T15:28:29;22.30;1.00
506;DHT22;551;48.524;9.056;2022-10-23T15:30:55;22.60;1.00
506;DHT22;551;48.524;9.056;2022-10-23T15:33:21;21.90;1.00
506;DHT22;551;48.524;9.056;2022-10-23T15:35:47;21.90;1.00
506;DHT22;551;48.524;9.056;2022-10-23T15:38:12;21.90;1.00
506;DHT22;551;48.524;9.056;2022-10-23T15:40:38;21.90;1.00
506;DHT22;551;48.524;9.056;2022-10-23T15:43:04;21.60;1.00
506;DHT22;551;48.524;9.056;2022-10-23T15:45:30;21.80;1.00
506;DHT22;551;48.524;9.056;2022-10-23T15:47:57;21.60;1.00
506;DHT22;551;48.524;9.056;2022-10-23T15:50:23;21.60;1.00
506;DHT22;551;48.524;9.056;2022-10-23T15:52:49;21.50;1.00
506;DHT22;551;48.524;9.056;2022-10-23T15:55:15;21.40;1.00
506;DHT22;551;48.524;9.056;2022-10-23T15:57:41;21.40;1.00
506;DHT22;551;48.524;9.056;2022-10-23T16:00:08;21.10;1.00
506;DHT22;551;48.524;9.056;2022-10-23T16:02:34;21.10;1.00
506;DHT22;551;48.524;9.056;2022-10-23T16:05:00;20.90;1.00
506;DHT22;551;48.524;9.056;2022-10-23T16:07:26;20.80;1.00
506;DHT22;551;48.524;9.056;2022-10-23T16:09:52;21.00;1.00
506;DHT22;551;48.524;9.056;2022-10-23T16:12:17;20.50;1.00
506;DHT22;551;48.524;9.056;2022-10-23T16:14:43;20.30;1.00
506;DHT22;551;48.524;9.056;2022-10-23T16:17:09;20.30;1.00
506;DHT22;551;48.524;9.056;2022-10-23T16:19:34;20.30;1.00
506;DHT22;551;48.524;9.056;2022-10-23T16:22:00;20.50;1.00
506;DHT22;551;48.524;9.056;2022-10-23T16:24:27;19.90;1.00
506;DHT22;551;48.524;9.056;2022-10-23T16:26:53;19.80;1.00
506;DHT22;551;48.524;9.056;2022-10-23T16:29:20;19.70;1.00
506;DHT22;551;48.524;9.056;2022-10-23T16:31:50;19.50;1.00
506;DHT22;551;48.524;9.056;2022-10-23T16:34:16;19.50;1.00
506;DHT22;551;48.524;9.056;2022-10-23T16:36:41;19.80;1.00
506;DHT22;551;48.524;9.056;2022-10-23T16:39:08;19.50;1.00
506;DHT22;551;48.524;9.056;2022-10-23T16:41:34;19.40;1.00
506;DHT22;551;48.524;9.056;2022-10-23T16:44:00;19.40;1.00
506;DHT22;551;48.524;9.056;2022-10-23T16:46:26;19.30;1.00
506;DHT22;551;48.524;9.056;2022-10-23T16:48:52;19.30;1.00
506;DHT22;551;48.524;9.056;2022-10-23T16:51:20;19.40;1.00
506;DHT22;551;48.524;9.056;2022-10-23T16:53:46;19.20;1.00
506;DHT22;551;48.524;9.056;2022-10-23T16:56:14;19.20;1.00
506;DHT22;551;48.524;9.056;2022-10-23T16:58:40;19.10;1.00
506;DHT22;551;48.524;9.056;2022-10-23T17:01:22;19.20;1.00
506;DHT22;551;48.524;9.056;2022-10-23T17:03:49;19.20;1.00
506;DHT22;551;48.524;9.056;2022-10-23T17:06:20;19.00;1.00
506;DHT22;551;48.524;9.056;2022-10-23T17:08:46;19.10;1.00
506;DHT22;551;48.524;9.056;2022-10-23T17:11:14;18.90;1.00
506;DHT22;551;48.524;9.056;2022-10-23T17:13:51;19.00;1.00
506;DHT22;551;48.524;9.056;2022-10-23T17:16:23;18.90;1.00
506;DHT22;551;48.524;9.056;2022-10-23T17:18:49;18.90;1.00
506;DHT22;551;48.524;9.056;2022-10-23T17:21:17;18.80;1.00
506;DHT22;551;48.524;9.056;2022-10-23T17:23:43;19.00;1.00
506;DHT22;551;48.524;9.056;2022-10-23T17:26:11;18.80;1.00
506;DHT22;551;48.524;9.056;2022-10-23T17:28:37;18.70;1.00
506;DHT22;551;48.524;9.056;2022-10-23T17:31:41;18.70;1.00
506;DHT22;551;48.524;9.056;2022-10-23T17:34:10;18.70;1.00
506;DHT22;551;48.524;9.056;2022-10-23T17:36:39;18.70;1.00
506;DHT22;551;48.524;9.056;2022-10-23T17:39:06;18.70;1.00
506;DHT22;551;48.524;9.056;2022-10-23T17:41:32;18.70;1.00
506;DHT22;551;48.524;9.056;2022-10-23T17:43:58;18.80;1.00
506;DHT22;551;48.524;9.056;2022-10-23T17:46:24;18.70;1.00
506;DHT22;551;48.524;9.056;2022-10-23T17:48:50;18.70;1.00
506;DHT22;551;48.524;9.056;2022-10-23T17:51:21;18.60;1.00
506;DHT22;551;48.524;9.056;2022-10-23T17:53:48;18.60;1.00
506;DHT22;551;48.524;9.056;2022-10-23T17:56:17;18.60;1.00
506;DHT22;551;48.524;9.056;2022-10-23T17:58:51;18.60;1.00
506;DHT22;551;48.524;9.056;2022-10-23T18:01:20;18.60;1.00
506;DHT22;551;48.524;9.056;2022-10-23T18:03:45;18.60;1.00
506;DHT22;551;48.524;9.056;2022-10-23T18:06:20;18.50;1.00
506;DHT22;551;48.524;9.056;2022-10-23T18:08:49;18.60;1.00
506;DHT22;551;48.524;9.056;2022-10-23T18:11:17;18.90;1.00
506;DHT22;551;48.524;9.056;2022-10-23T18:13:44;18.50;1.00
506;DHT22;551;48.524;9.056;2022-10-23T18:16:10;18.40;1.00
506;DHT22;551;48.524;9.056;2022-10-23T18:18:37;18.30;1.00
506;DHT22;551;48.524;9.056;2022-10-23T18:21:04;18.50;1.00
506;DHT22;551;48.524;9.056;2022-10-23T18:23:31;18.40;1.00
506;DHT22;551;48.524;9.056;2022-10-23T18:25:57;18.40;1.00
506;DHT22;551;48.524;9.056;2022-10-23T18:28:23;18.30;1.00
506;DHT22;551;48.524;9.056;2022-10-23T18:30:49;18.30;1.00
506;DHT22;551;48.524;9.056;2022-10-23T18:33:15;18.30;1.00
506;DHT22;551;48.524;9.056;2022-10-23T18:35:41;18.20;1.00